Main page
METAR-TAF:

METAR-TAF

Airports :

Piacenza, Italy

Piacenza Air Base

latitude: 44-55N, longitude: 009-44E, elevation: 134 m

Current weather observation

The report was made 17 hours and 37 minutes ago, at 17:55 UTC
Wind 3 kt from the West/Northwest
Temperature 11°C
Humidity 100%
Pressure 1022 hPa
Visibility: 4000 m
Scattered clouds at a height of 1000 ft
mist

METAR: LIMS 241755Z 29003KT 4000 BR SCT010 11/11 Q1022 RMK OVC BKN100 VIS MIN 4000 WIND THR30 27003KT GRN

Time: 12:32 (11:32 UTC)

Forecast

The report was made 18 hours and 32 minutes ago, at 17:00 UTC
Forecast valid from 24 at 18 UTC to 25 at 03 UTC
Wind 5 kt from the West
Visibility: 3000 m
Few clouds at a height of 1000 ft
Scattered clouds at a height of 2000 ft
mist

TAF: LIMS 241700Z 2418/2503 28005KT 3000 BR FEW010 SCT020

Weather observations and forecasts of more than 4000 airports (METAR and TAF reports).

The available stations are represented by yellow and red dots on the map.

Hover mouse over dot to see the name of the station.

Then click to see weather observations and forecasts.

To change the map : click on the green buttons with a black cross to zoom in, on the green button with a dash to zoom out, or on the green arrows for adjacent maps.


METAR-TAF: